Weather at Sarımsaklı Airfield

Public forecast

Using degrees Celsius for public forecast. Weather courtesy of forecast.io.

Closest aviation weather report (METAR) to Sarımsaklı Airfield

Closest report is Mytilene International Airport, 13.7 nm (25.3 km) SSW. Retrieved 2022/01/27 05:50 UTC (28 minutes ago):

LGMT 270550Z 25004KT 9999 FEW025 M00/M05 Q1025

Closest aviation forecast (TAF) to Sarımsaklı Airfield

Forecast is more than 12 hours old.

Closest forecast is Mytilene International Airport, 13.7 nm (25.3 km) SSW. Retrieved 2012/09/21 03:06 UTC (9 years ago):

TAF LGMT 210200Z 2103/2115 VRB05KT 9999 SCT020 BECMG 2103/2105 30015KT PROB30 TEMPO 2103/2106 7000 RA SCT018 BKN030 BECMG 2107/2109 29012KT